Terminal Aerodrome Forecast
Issued by NWS

Home | Current Version | Previous Version | Text Only | Print | Product List | Glossary On
Versions: 1 2 3 4 5 6 7 8 9 10 11 12 13 14 15 16 17 18 19 20 21
000
FTUS44 KHGX 250903 AAA
TAFCXO
TAF AMD
KCXO 250903Z 2509/2606 17003KT P6SM SCT008 BKN015 BKN026
     FM251500 06004KT P6SM SCT015
     FM251700 10007KT P6SM SKC
     FM260100 14005KT P6SM SKC=

USA.gov is the U.S. government's official web portal to all federal, state and local government web resources and services.